sensor_id;sensor_type;location;lat;lon;timestamp;P1;durP1;ratioP1;P2;durP2;ratioP2
8708;SDS011;4391;48.678;9.280;2023-07-20T00:02:22;8.68;;;1.52;;
8708;SDS011;4391;48.678;9.280;2023-07-20T00:04:49;3.80;;;1.40;;
8708;SDS011;4391;48.678;9.280;2023-07-20T00:07:16;4.87;;;1.60;;
8708;SDS011;4391;48.678;9.280;2023-07-20T00:09:44;6.13;;;1.85;;
8708;SDS011;4391;48.678;9.280;2023-07-20T00:12:11;7.13;;;1.60;;
8708;SDS011;4391;48.678;9.280;2023-07-20T00:14:37;4.32;;;1.70;;
8708;SDS011;4391;48.678;9.280;2023-07-20T00:17:04;4.40;;;1.65;;
8708;SDS011;4391;48.678;9.280;2023-07-20T00:19:32;3.90;;;1.30;;
8708;SDS011;4391;48.678;9.280;2023-07-20T00:22:00;4.03;;;1.30;;
8708;SDS011;4391;48.678;9.280;2023-07-20T00:24:26;5.32;;;1.73;;
8708;SDS011;4391;48.678;9.280;2023-07-20T00:26:55;5.20;;;1.80;;
8708;SDS011;4391;48.678;9.280;2023-07-20T00:29:21;5.32;;;1.60;;
8708;SDS011;4391;48.678;9.280;2023-07-20T00:31:48;4.40;;;1.70;;
8708;SDS011;4391;48.678;9.280;2023-07-20T00:34:15;6.40;;;1.92;;
8708;SDS011;4391;48.678;9.280;2023-07-20T00:36:42;4.05;;;1.70;;
8708;SDS011;4391;48.678;9.280;2023-07-20T00:39:08;5.22;;;1.85;;
8708;SDS011;4391;48.678;9.280;2023-07-20T00:41:35;4.82;;;1.90;;
8708;SDS011;4391;48.678;9.280;2023-07-20T00:44:04;4.70;;;1.90;;
8708;SDS011;4391;48.678;9.280;2023-07-20T00:46:31;4.10;;;1.63;;
8708;SDS011;4391;48.678;9.280;2023-07-20T00:48:59;4.60;;;1.90;;
8708;SDS011;4391;48.678;9.280;2023-07-20T00:51:26;6.40;;;1.65;;
8708;SDS011;4391;48.678;9.280;2023-07-20T00:53:53;5.68;;;1.70;;
8708;SDS011;4391;48.678;9.280;2023-07-20T00:56:20;4.97;;;1.73;;
8708;SDS011;4391;48.678;9.280;2023-07-20T00:58:48;4.53;;;1.60;;
8708;SDS011;4391;48.678;9.280;2023-07-20T01:01:16;5.28;;;1.83;;
8708;SDS011;4391;48.678;9.280;2023-07-20T01:03:43;4.50;;;1.85;;
8708;SDS011;4391;48.678;9.280;2023-07-20T01:06:12;5.22;;;1.80;;
8708;SDS011;4391;48.678;9.280;2023-07-20T01:08:55;4.60;;;1.80;;
8708;SDS011;4391;48.678;9.280;2023-07-20T01:11:35;5.05;;;1.63;;
8708;SDS011;4391;48.678;9.280;2023-07-20T01:14:05;4.72;;;1.40;;
8708;SDS011;4391;48.678;9.280;2023-07-20T01:16:33;3.58;;;1.20;;
8708;SDS011;4391;48.678;9.280;2023-07-20T01:19:00;3.75;;;1.50;;
8708;SDS011;4391;48.678;9.280;2023-07-20T01:21:30;4.00;;;1.40;;
8708;SDS011;4391;48.678;9.280;2023-07-20T01:24:19;5.47;;;1.67;;
8708;SDS011;4391;48.678;9.280;2023-07-20T01:33:13;5.30;;;1.70;;
8708;SDS011;4391;48.678;9.280;2023-07-20T01:35:42;4.80;;;1.73;;
8708;SDS011;4391;48.678;9.280;2023-07-20T01:38:11;7.80;;;1.98;;
8708;SDS011;4391;48.678;9.280;2023-07-20T01:40:39;5.25;;;1.75;;
8708;SDS011;4391;48.678;9.280;2023-07-20T01:43:07;4.93;;;1.70;;
8708;SDS011;4391;48.678;9.280;2023-07-20T01:45:34;3.92;;;1.52;;
8708;SDS011;4391;48.678;9.280;2023-07-20T01:48:01;5.00;;;1.70;;
8708;SDS011;4391;48.678;9.280;2023-07-20T01:50:29;4.35;;;1.55;;
8708;SDS011;4391;48.678;9.280;2023-07-20T01:52:56;4.95;;;1.80;;
8708;SDS011;4391;48.678;9.280;2023-07-20T01:55:23;5.80;;;1.60;;
8708;SDS011;4391;48.678;9.280;2023-07-20T01:57:50;5.97;;;1.35;;
8708;SDS011;4391;48.678;9.280;2023-07-20T02:00:17;5.80;;;1.67;;
8708;SDS011;4391;48.678;9.280;2023-07-20T02:02:46;6.97;;;1.80;;
8708;SDS011;4391;48.678;9.280;2023-07-20T02:05:13;4.80;;;1.67;;
8708;SDS011;4391;48.678;9.280;2023-07-20T02:07:41;4.65;;;1.75;;
8708;SDS011;4391;48.678;9.280;2023-07-20T02:10:10;3.92;;;1.70;;
8708;SDS011;4391;48.678;9.280;2023-07-20T02:12:37;5.53;;;1.60;;
8708;SDS011;4391;48.678;9.280;2023-07-20T02:15:04;5.35;;;1.58;;
8708;SDS011;4391;48.678;9.280;2023-07-20T02:17:32;4.68;;;1.80;;
8708;SDS011;4391;48.678;9.280;2023-07-20T02:19:58;6.10;;;1.92;;
8708;SDS011;4391;48.678;9.280;2023-07-20T02:22:25;5.60;;;1.73;;
8708;SDS011;4391;48.678;9.280;2023-07-20T02:24:54;6.53;;;1.90;;
8708;SDS011;4391;48.678;9.280;2023-07-20T02:27:20;8.32;;;2.50;;
8708;SDS011;4391;48.678;9.280;2023-07-20T02:29:47;5.53;;;2.15;;
8708;SDS011;4391;48.678;9.280;2023-07-20T02:32:15;4.45;;;1.73;;
8708;SDS011;4391;48.678;9.280;2023-07-20T02:34:42;4.93;;;1.60;;
8708;SDS011;4391;48.678;9.280;2023-07-20T02:37:09;4.93;;;1.70;;
8708;SDS011;4391;48.678;9.280;2023-07-20T02:39:38;6.93;;;1.65;;
8708;SDS011;4391;48.678;9.280;2023-07-20T02:42:06;4.90;;;1.95;;
8708;SDS011;4391;48.678;9.280;2023-07-20T02:44:33;4.68;;;1.70;;
8708;SDS011;4391;48.678;9.280;2023-07-20T02:47:00;4.60;;;1.67;;
8708;SDS011;4391;48.678;9.280;2023-07-20T02:49:26;5.17;;;1.90;;
8708;SDS011;4391;48.678;9.280;2023-07-20T02:51:53;4.47;;;1.70;;
8708;SDS011;4391;48.678;9.280;2023-07-20T02:54:20;5.45;;;1.70;;
8708;SDS011;4391;48.678;9.280;2023-07-20T02:56:47;4.05;;;1.80;;
8708;SDS011;4391;48.678;9.280;2023-07-20T02:59:16;5.00;;;1.77;;
8708;SDS011;4391;48.678;9.280;2023-07-20T03:01:43;4.90;;;1.50;;
8708;SDS011;4391;48.678;9.280;2023-07-20T03:04:10;5.38;;;1.75;;
8708;SDS011;4391;48.678;9.280;2023-07-20T03:06:37;5.25;;;2.03;;
8708;SDS011;4391;48.678;9.280;2023-07-20T03:09:03;4.68;;;2.10;;
8708;SDS011;4391;48.678;9.280;2023-07-20T03:11:31;6.43;;;1.80;;
8708;SDS011;4391;48.678;9.280;2023-07-20T03:13:58;4.00;;;1.67;;
8708;SDS011;4391;48.678;9.280;2023-07-20T03:16:27;4.22;;;1.63;;
8708;SDS011;4391;48.678;9.280;2023-07-20T03:18:53;4.20;;;1.65;;
8708;SDS011;4391;48.678;9.280;2023-07-20T03:21:20;5.85;;;1.90;;
8708;SDS011;4391;48.678;9.280;2023-07-20T03:23:47;5.85;;;1.80;;
8708;SDS011;4391;48.678;9.280;2023-07-20T03:26:14;6.90;;;1.70;;
8708;SDS011;4391;48.678;9.280;2023-07-20T03:28:40;5.13;;;1.83;;
8708;SDS011;4391;48.678;9.280;2023-07-20T03:31:07;4.95;;;1.80;;
8708;SDS011;4391;48.678;9.280;2023-07-20T03:33:36;4.93;;;2.00;;
8708;SDS011;4391;48.678;9.280;2023-07-20T03:36:02;7.05;;;2.17;;
8708;SDS011;4391;48.678;9.280;2023-07-20T03:38:30;4.63;;;1.90;;
8708;SDS011;4391;48.678;9.280;2023-07-20T03:40:58;5.03;;;1.80;;
8708;SDS011;4391;48.678;9.280;2023-07-20T03:43:26;6.60;;;1.90;;
8708;SDS011;4391;48.678;9.280;2023-07-20T03:45:54;4.53;;;1.80;;
8708;SDS011;4391;48.678;9.280;2023-07-20T03:48:22;6.35;;;1.80;;
8708;SDS011;4391;48.678;9.280;2023-07-20T03:50:51;4.77;;;1.67;;
8708;SDS011;4391;48.678;9.280;2023-07-20T03:53:19;5.75;;;2.17;;
8708;SDS011;4391;48.678;9.280;2023-07-20T03:55:46;6.18;;;1.83;;
8708;SDS011;4391;48.678;9.280;2023-07-20T03:58:14;6.78;;;2.00;;
8708;SDS011;4391;48.678;9.280;2023-07-20T04:00:43;5.07;;;1.60;;
8708;SDS011;4391;48.678;9.280;2023-07-20T04:03:11;5.67;;;1.77;;
8708;SDS011;4391;48.678;9.280;2023-07-20T04:05:37;4.25;;;1.67;;
8708;SDS011;4391;48.678;9.280;2023-07-20T04:08:06;4.65;;;1.75;;
8708;SDS011;4391;48.678;9.280;2023-07-20T04:10:32;6.05;;;2.20;;
8708;SDS011;4391;48.678;9.280;2023-07-20T04:13:00;4.72;;;1.65;;
8708;SDS011;4391;48.678;9.280;2023-07-20T04:15:27;6.87;;;1.90;;
8708;SDS011;4391;48.678;9.280;2023-07-20T04:17:54;4.63;;;1.65;;
8708;SDS011;4391;48.678;9.280;2023-07-20T04:20:21;5.10;;;1.80;;
8708;SDS011;4391;48.678;9.280;2023-07-20T04:22:48;5.75;;;1.90;;
8708;SDS011;4391;48.678;9.280;2023-07-20T04:25:17;5.25;;;1.92;;
8708;SDS011;4391;48.678;9.280;2023-07-20T04:27:46;5.60;;;1.80;;
8708;SDS011;4391;48.678;9.280;2023-07-20T04:30:13;5.43;;;2.00;;
8708;SDS011;4391;48.678;9.280;2023-07-20T04:32:45;5.68;;;1.80;;
8708;SDS011;4391;48.678;9.280;2023-07-20T04:35:16;4.30;;;1.73;;
8708;SDS011;4391;48.678;9.280;2023-07-20T04:37:46;5.47;;;1.80;;
8708;SDS011;4391;48.678;9.280;2023-07-20T04:40:15;5.13;;;1.90;;
8708;SDS011;4391;48.678;9.280;2023-07-20T04:42:43;6.43;;;2.05;;
8708;SDS011;4391;48.678;9.280;2023-07-20T04:45:10;4.90;;;1.85;;
8708;SDS011;4391;48.678;9.280;2023-07-20T04:47:38;5.72;;;1.60;;
8708;SDS011;4391;48.678;9.280;2023-07-20T04:50:05;4.53;;;1.88;;
8708;SDS011;4391;48.678;9.280;2023-07-20T04:52:32;4.93;;;1.87;;
8708;SDS011;4391;48.678;9.280;2023-07-20T04:54:59;5.72;;;1.80;;
8708;SDS011;4391;48.678;9.280;2023-07-20T04:57:29;5.07;;;1.80;;
8708;SDS011;4391;48.678;9.280;2023-07-20T04:59:57;8.18;;;2.10;;
8708;SDS011;4391;48.678;9.280;2023-07-20T05:02:23;4.43;;;1.52;;
8708;SDS011;4391;48.678;9.280;2023-07-20T05:04:50;4.27;;;1.77;;
8708;SDS011;4391;48.678;9.280;2023-07-20T05:07:18;4.40;;;1.65;;
8708;SDS011;4391;48.678;9.280;2023-07-20T05:09:45;4.07;;;1.67;;
8708;SDS011;4391;48.678;9.280;2023-07-20T05:12:11;6.25;;;2.15;;
8708;SDS011;4391;48.678;9.280;2023-07-20T05:14:39;6.50;;;1.70;;
8708;SDS011;4391;48.678;9.280;2023-07-20T05:17:07;4.40;;;1.43;;
8708;SDS011;4391;48.678;9.280;2023-07-20T05:19:33;6.10;;;1.88;;
8708;SDS011;4391;48.678;9.280;2023-07-20T05:22:00;4.53;;;1.60;;
8708;SDS011;4391;48.678;9.280;2023-07-20T05:24:27;7.20;;;1.50;;
8708;SDS011;4391;48.678;9.280;2023-07-20T05:26:54;4.80;;;1.55;;
8708;SDS011;4391;48.678;9.280;2023-07-20T05:29:20;5.93;;;1.50;;
8708;SDS011;4391;48.678;9.280;2023-07-20T05:31:49;5.43;;;1.75;;
8708;SDS011;4391;48.678;9.280;2023-07-20T05:34:15;5.95;;;1.90;;
8708;SDS011;4391;48.678;9.280;2023-07-20T05:36:42;4.93;;;1.60;;
8708;SDS011;4391;48.678;9.280;2023-07-20T05:39:09;4.50;;;1.50;;
8708;SDS011;4391;48.678;9.280;2023-07-20T05:41:36;3.43;;;1.50;;
8708;SDS011;4391;48.678;9.280;2023-07-20T05:44:03;5.93;;;1.73;;
8708;SDS011;4391;48.678;9.280;2023-07-20T05:46:29;4.95;;;1.75;;
8708;SDS011;4391;48.678;9.280;2023-07-20T05:48:58;4.30;;;1.40;;
8708;SDS011;4391;48.678;9.280;2023-07-20T05:51:25;4.18;;;1.52;;
8708;SDS011;4391;48.678;9.280;2023-07-20T05:53:52;3.93;;;1.33;;
8708;SDS011;4391;48.678;9.280;2023-07-20T05:56:19;4.28;;;1.48;;
8708;SDS011;4391;48.678;9.280;2023-07-20T05:58:45;9.60;;;1.52;;
8708;SDS011;4391;48.678;9.280;2023-07-20T06:01:12;4.95;;;1.60;;
8708;SDS011;4391;48.678;9.280;2023-07-20T06:03:39;4.20;;;1.60;;
8708;SDS011;4391;48.678;9.280;2023-07-20T06:06:07;4.70;;;1.70;;
8708;SDS011;4391;48.678;9.280;2023-07-20T06:08:37;4.60;;;1.70;;
8708;SDS011;4391;48.678;9.280;2023-07-20T06:11:04;5.05;;;1.63;;
8708;SDS011;4391;48.678;9.280;2023-07-20T06:13:30;4.07;;;1.30;;
8708;SDS011;4391;48.678;9.280;2023-07-20T06:15:57;6.13;;;1.52;;
8708;SDS011;4391;48.678;9.280;2023-07-20T06:18:24;5.20;;;1.30;;
8708;SDS011;4391;48.678;9.280;2023-07-20T06:20:51;4.90;;;1.45;;
8708;SDS011;4391;48.678;9.280;2023-07-20T06:23:19;5.65;;;1.40;;
8708;SDS011;4391;48.678;9.280;2023-07-20T06:25:46;6.65;;;1.52;;
8708;SDS011;4391;48.678;9.280;2023-07-20T06:28:13;4.30;;;1.42;;
8708;SDS011;4391;48.678;9.280;2023-07-20T06:30:40;6.23;;;1.37;;
8708;SDS011;4391;48.678;9.280;2023-07-20T06:33:07;4.82;;;1.30;;
8708;SDS011;4391;48.678;9.280;2023-07-20T06:35:34;4.00;;;1.65;;
8708;SDS011;4391;48.678;9.280;2023-07-20T06:38:00;4.85;;;1.50;;
8708;SDS011;4391;48.678;9.280;2023-07-20T06:40:30;7.07;;;1.30;;
8708;SDS011;4391;48.678;9.280;2023-07-20T06:42:57;4.47;;;1.43;;
8708;SDS011;4391;48.678;9.280;2023-07-20T06:45:24;3.70;;;1.17;;
8708;SDS011;4391;48.678;9.280;2023-07-20T06:47:50;7.97;;;2.05;;
8708;SDS011;4391;48.678;9.280;2023-07-20T06:50:17;4.60;;;1.45;;
8708;SDS011;4391;48.678;9.280;2023-07-20T06:52:44;7.13;;;1.80;;
8708;SDS011;4391;48.678;9.280;2023-07-20T06:55:13;4.50;;;1.47;;
8708;SDS011;4391;48.678;9.280;2023-07-20T06:57:41;5.72;;;1.33;;
8708;SDS011;4391;48.678;9.280;2023-07-20T07:00:08;4.25;;;1.45;;
8708;SDS011;4391;48.678;9.280;2023-07-20T07:02:36;3.88;;;1.27;;
8708;SDS011;4391;48.678;9.280;2023-07-20T07:05:03;4.68;;;1.35;;
8708;SDS011;4391;48.678;9.280;2023-07-20T07:07:30;3.63;;;1.53;;
8708;SDS011;4391;48.678;9.280;2023-07-20T07:09:57;4.28;;;1.20;;
8708;SDS011;4391;48.678;9.280;2023-07-20T07:12:24;6.93;;;1.80;;
8708;SDS011;4391;48.678;9.280;2023-07-20T07:14:52;3.60;;;1.20;;
8708;SDS011;4391;48.678;9.280;2023-07-20T07:17:19;4.40;;;1.50;;
8708;SDS011;4391;48.678;9.280;2023-07-20T07:19:46;4.70;;;1.30;;
8708;SDS011;4391;48.678;9.280;2023-07-20T07:22:12;4.70;;;1.60;;
8708;SDS011;4391;48.678;9.280;2023-07-20T07:24:39;5.93;;;1.50;;
8708;SDS011;4391;48.678;9.280;2023-07-20T07:27:08;4.20;;;1.30;;
8708;SDS011;4391;48.678;9.280;2023-07-20T07:29:35;6.50;;;1.60;;
8708;SDS011;4391;48.678;9.280;2023-07-20T07:32:03;4.97;;;1.33;;
8708;SDS011;4391;48.678;9.280;2023-07-20T07:34:30;3.80;;;1.50;;
8708;SDS011;4391;48.678;9.280;2023-07-20T07:36:59;5.75;;;1.38;;
8708;SDS011;4391;48.678;9.280;2023-07-20T07:39:26;5.55;;;1.92;;
8708;SDS011;4391;48.678;9.280;2023-07-20T07:41:55;7.32;;;1.80;;
8708;SDS011;4391;48.678;9.280;2023-07-20T07:44:21;4.53;;;1.73;;
8708;SDS011;4391;48.678;9.280;2023-07-20T07:46:48;6.28;;;1.50;;
8708;SDS011;4391;48.678;9.280;2023-07-20T07:49:18;4.78;;;1.65;;
8708;SDS011;4391;48.678;9.280;2023-07-20T07:51:45;4.00;;;1.27;;
8708;SDS011;4391;48.678;9.280;2023-07-20T07:54:12;4.22;;;1.52;;
8708;SDS011;4391;48.678;9.280;2023-07-20T07:56:38;5.50;;;1.73;;
8708;SDS011;4391;48.678;9.280;2023-07-20T07:59:06;4.20;;;1.48;;
8708;SDS011;4391;48.678;9.280;2023-07-20T08:01:33;5.03;;;1.67;;
8708;SDS011;4391;48.678;9.280;2023-07-20T08:03:59;5.63;;;1.60;;
8708;SDS011;4391;48.678;9.280;2023-07-20T08:06:30;4.05;;;1.45;;
8708;SDS011;4391;48.678;9.280;2023-07-20T08:08:58;5.70;;;1.70;;
8708;SDS011;4391;48.678;9.280;2023-07-20T08:11:24;4.43;;;1.80;;
8708;SDS011;4391;48.678;9.280;2023-07-20T08:13:51;6.15;;;1.30;;
8708;SDS011;4391;48.678;9.280;2023-07-20T08:16:18;6.35;;;1.63;;
8708;SDS011;4391;48.678;9.280;2023-07-20T08:18:45;7.32;;;2.13;;
8708;SDS011;4391;48.678;9.280;2023-07-20T08:21:11;8.13;;;1.90;;
8708;SDS011;4391;48.678;9.280;2023-07-20T08:23:40;5.78;;;1.60;;
8708;SDS011;4391;48.678;9.280;2023-07-20T08:26:07;5.03;;;1.60;;
8708;SDS011;4391;48.678;9.280;2023-07-20T08:28:34;4.75;;;1.30;;
8708;SDS011;4391;48.678;9.280;2023-07-20T08:31:01;5.32;;;1.50;;
8708;SDS011;4391;48.678;9.280;2023-07-20T08:33:28;4.20;;;1.70;;
8708;SDS011;4391;48.678;9.280;2023-07-20T08:35:58;6.65;;;1.60;;
8708;SDS011;4391;48.678;9.280;2023-07-20T08:38:26;4.07;;;1.50;;
8708;SDS011;4391;48.678;9.280;2023-07-20T08:40:54;4.55;;;1.42;;
8708;SDS011;4391;48.678;9.280;2023-07-20T08:43:21;6.40;;;1.50;;
8708;SDS011;4391;48.678;9.280;2023-07-20T08:45:49;3.97;;;1.30;;
8708;SDS011;4391;48.678;9.280;2023-07-20T08:48:20;6.85;;;1.48;;
8708;SDS011;4391;48.678;9.280;2023-07-20T08:50:47;6.95;;;1.50;;
8708;SDS011;4391;48.678;9.280;2023-07-20T08:53:17;6.55;;;1.88;;
8708;SDS011;4391;48.678;9.280;2023-07-20T08:55:44;7.90;;;1.75;;
8708;SDS011;4391;48.678;9.280;2023-07-20T08:58:13;7.63;;;1.50;;
8708;SDS011;4391;48.678;9.280;2023-07-20T09:00:41;5.05;;;1.50;;
8708;SDS011;4391;48.678;9.280;2023-07-20T09:03:09;6.00;;;1.38;;
8708;SDS011;4391;48.678;9.280;2023-07-20T09:05:37;5.13;;;1.33;;
8708;SDS011;4391;48.678;9.280;2023-07-20T09:08:05;5.05;;;1.30;;
8708;SDS011;4391;48.678;9.280;2023-07-20T09:10:35;5.90;;;1.90;;
8708;SDS011;4391;48.678;9.280;2023-07-20T09:13:01;5.45;;;1.77;;
8708;SDS011;4391;48.678;9.280;2023-07-20T09:15:30;5.00;;;1.63;;
8708;SDS011;4391;48.678;9.280;2023-07-20T09:18:02;7.50;;;1.80;;
8708;SDS011;4391;48.678;9.280;2023-07-20T09:20:30;3.47;;;1.50;;
8708;SDS011;4391;48.678;9.280;2023-07-20T09:22:58;6.07;;;1.40;;
8708;SDS011;4391;48.678;9.280;2023-07-20T09:25:25;6.22;;;1.65;;
8708;SDS011;4391;48.678;9.280;2023-07-20T09:27:53;3.10;;;1.20;;
8708;SDS011;4391;48.678;9.280;2023-07-20T09:30:21;6.97;;;2.00;;
8708;SDS011;4391;48.678;9.280;2023-07-20T09:32:53;6.70;;;1.75;;
8708;SDS011;4391;48.678;9.280;2023-07-20T09:35:20;5.00;;;1.37;;
8708;SDS011;4391;48.678;9.280;2023-07-20T09:37:49;3.80;;;1.30;;
8708;SDS011;4391;48.678;9.280;2023-07-20T09:40:18;4.50;;;1.40;;
8708;SDS011;4391;48.678;9.280;2023-07-20T09:42:45;6.03;;;1.70;;
8708;SDS011;4391;48.678;9.280;2023-07-20T09:45:13;5.53;;;1.48;;
8708;SDS011;4391;48.678;9.280;2023-07-20T09:47:39;5.83;;;1.50;;
8708;SDS011;4391;48.678;9.280;2023-07-20T09:50:08;5.13;;;1.30;;
8708;SDS011;4391;48.678;9.280;2023-07-20T09:52:40;3.50;;;1.17;;
8708;SDS011;4391;48.678;9.280;2023-07-20T09:55:09;4.03;;;1.10;;
8708;SDS011;4391;48.678;9.280;2023-07-20T09:57:37;8.63;;;1.60;;
8708;SDS011;4391;48.678;9.280;2023-07-20T10:00:05;3.50;;;1.13;;
8708;SDS011;4391;48.678;9.280;2023-07-20T10:02:42;4.70;;;1.40;;
8708;SDS011;4391;48.678;9.280;2023-07-20T10:05:12;4.97;;;1.40;;
8708;SDS011;4391;48.678;9.280;2023-07-20T10:07:43;3.40;;;1.13;;
8708;SDS011;4391;48.678;9.280;2023-07-20T10:10:12;4.38;;;1.13;;
8708;SDS011;4391;48.678;9.280;2023-07-20T10:12:42;3.07;;;1.03;;
8708;SDS011;4391;48.678;9.280;2023-07-20T10:15:11;5.30;;;1.40;;
8708;SDS011;4391;48.678;9.280;2023-07-20T10:17:41;4.85;;;1.58;;
8708;SDS011;4391;48.678;9.280;2023-07-20T10:20:17;4.75;;;1.60;;
8708;SDS011;4391;48.678;9.280;2023-07-20T10:22:47;5.38;;;1.50;;
8708;SDS011;4391;48.678;9.280;2023-07-20T10:25:19;4.07;;;1.30;;
8708;SDS011;4391;48.678;9.280;2023-07-20T10:27:48;3.67;;;1.50;;
8708;SDS011;4391;48.678;9.280;2023-07-20T10:30:15;5.50;;;1.60;;
8708;SDS011;4391;48.678;9.280;2023-07-20T10:32:43;5.85;;;1.45;;
8708;SDS011;4391;48.678;9.280;2023-07-20T10:35:12;7.95;;;1.52;;
8708;SDS011;4391;48.678;9.280;2023-07-20T10:37:50;4.80;;;1.40;;
8708;SDS011;4391;48.678;9.280;2023-07-20T10:40:25;3.13;;;1.20;;
8708;SDS011;4391;48.678;9.280;2023-07-20T10:42:57;5.03;;;1.20;;
8708;SDS011;4391;48.678;9.280;2023-07-20T10:45:34;3.90;;;1.02;;
8708;SDS011;4391;48.678;9.280;2023-07-20T10:48:15;3.97;;;1.10;;
8708;SDS011;4391;48.678;9.280;2023-07-20T10:50:44;3.03;;;1.10;;
8708;SDS011;4391;48.678;9.280;2023-07-20T10:53:14;3.58;;;1.10;;
8708;SDS011;4391;48.678;9.280;2023-07-20T10:55:42;3.28;;;1.10;;
8708;SDS011;4391;48.678;9.280;2023-07-20T10:58:11;3.88;;;1.27;;
8708;SDS011;4391;48.678;9.280;2023-07-20T11:01:00;3.78;;;1.40;;
8708;SDS011;4391;48.678;9.280;2023-07-20T11:03:28;3.93;;;1.13;;
8708;SDS011;4391;48.678;9.280;2023-07-20T11:05:56;5.13;;;1.20;;
8708;SDS011;4391;48.678;9.280;2023-07-20T11:08:39;4.35;;;1.08;;
8708;SDS011;4391;48.678;9.280;2023-07-20T11:11:22;4.15;;;1.30;;
8708;SDS011;4391;48.678;9.280;2023-07-20T11:13:54;3.65;;;1.30;;
8708;SDS011;4391;48.678;9.280;2023-07-20T11:16:31;4.13;;;0.97;;
8708;SDS011;4391;48.678;9.280;2023-07-20T11:19:00;3.23;;;1.10;;
8708;SDS011;4391;48.678;9.280;2023-07-20T11:21:27;5.82;;;0.90;;
8708;SDS011;4391;48.678;9.280;2023-07-20T11:23:56;2.15;;;0.80;;
8708;SDS011;4391;48.678;9.280;2023-07-20T11:26:23;3.20;;;1.00;;
8708;SDS011;4391;48.678;9.280;2023-07-20T11:28:50;3.65;;;1.30;;
8708;SDS011;4391;48.678;9.280;2023-07-20T11:31:18;4.07;;;1.00;;
8708;SDS011;4391;48.678;9.280;2023-07-20T11:33:44;4.07;;;1.20;;
8708;SDS011;4391;48.678;9.280;2023-07-20T11:36:11;3.25;;;1.23;;
8708;SDS011;4391;48.678;9.280;2023-07-20T11:38:40;4.20;;;1.20;;
8708;SDS011;4391;48.678;9.280;2023-07-20T11:41:10;5.68;;;1.20;;
8708;SDS011;4391;48.678;9.280;2023-07-20T11:43:37;3.33;;;0.90;;
8708;SDS011;4391;48.678;9.280;2023-07-20T11:46:05;3.27;;;1.10;;
8708;SDS011;4391;48.678;9.280;2023-07-20T11:48:32;4.55;;;1.40;;
8708;SDS011;4391;48.678;9.280;2023-07-20T11:50:59;3.95;;;1.10;;
8708;SDS011;4391;48.678;9.280;2023-07-20T11:53:25;2.95;;;1.10;;
8708;SDS011;4391;48.678;9.280;2023-07-20T11:55:52;4.13;;;0.93;;
8708;SDS011;4391;48.678;9.280;2023-07-20T11:58:21;8.75;;;1.10;;
8708;SDS011;4391;48.678;9.280;2023-07-20T12:00:48;2.70;;;0.90;;
8708;SDS011;4391;48.678;9.280;2023-07-20T12:03:15;2.97;;;0.90;;
8708;SDS011;4391;48.678;9.280;2023-07-20T12:05:42;4.68;;;0.95;;
8708;SDS011;4391;48.678;9.280;2023-07-20T12:08:09;2.72;;;0.90;;
8708;SDS011;4391;48.678;9.280;2023-07-20T12:10:38;3.55;;;0.90;;
8708;SDS011;4391;48.678;9.280;2023-07-20T12:13:09;3.70;;;1.00;;
8708;SDS011;4391;48.678;9.280;2023-07-20T12:15:38;6.47;;;1.00;;
8708;SDS011;4391;48.678;9.280;2023-07-20T12:18:05;7.63;;;1.30;;
8708;SDS011;4391;48.678;9.280;2023-07-20T12:20:32;2.88;;;0.90;;
8708;SDS011;4391;48.678;9.280;2023-07-20T12:23:01;4.50;;;1.00;;
8708;SDS011;4391;48.678;9.280;2023-07-20T12:28:15;5.23;;;0.97;;
8708;SDS011;4391;48.678;9.280;2023-07-20T12:30:45;3.50;;;1.07;;
8708;SDS011;4391;48.678;9.280;2023-07-20T12:33:13;4.53;;;1.20;;
8708;SDS011;4391;48.678;9.280;2023-07-20T12:35:40;3.28;;;1.20;;
8708;SDS011;4391;48.678;9.280;2023-07-20T12:38:08;2.70;;;0.85;;
8708;SDS011;4391;48.678;9.280;2023-07-20T12:40:35;3.80;;;1.23;;
8708;SDS011;4391;48.678;9.280;2023-07-20T12:43:03;5.67;;;1.00;;
8708;SDS011;4391;48.678;9.280;2023-07-20T12:45:30;3.17;;;0.97;;
8708;SDS011;4391;48.678;9.280;2023-07-20T12:47:58;5.28;;;1.10;;
8708;SDS011;4391;48.678;9.280;2023-07-20T12:50:26;3.45;;;1.10;;
8708;SDS011;4391;48.678;9.280;2023-07-20T12:52:53;2.80;;;0.80;;
8708;SDS011;4391;48.678;9.280;2023-07-20T12:55:20;5.35;;;1.05;;
8708;SDS011;4391;48.678;9.280;2023-07-20T12:57:48;4.93;;;1.03;;
8708;SDS011;4391;48.678;9.280;2023-07-20T13:00:15;2.83;;;0.70;;
8708;SDS011;4391;48.678;9.280;2023-07-20T13:02:43;5.38;;;0.90;;
8708;SDS011;4391;48.678;9.280;2023-07-20T13:05:11;2.75;;;0.80;;
8708;SDS011;4391;48.678;9.280;2023-07-20T13:07:38;2.75;;;0.90;;
8708;SDS011;4391;48.678;9.280;2023-07-20T13:10:05;2.83;;;0.93;;
8708;SDS011;4391;48.678;9.280;2023-07-20T13:12:33;2.67;;;0.80;;
8708;SDS011;4391;48.678;9.280;2023-07-20T13:15:01;4.13;;;0.83;;
8708;SDS011;4391;48.678;9.280;2023-07-20T13:17:30;2.58;;;0.70;;
8708;SDS011;4391;48.678;9.280;2023-07-20T13:19:57;3.97;;;0.85;;
8708;SDS011;4391;48.678;9.280;2023-07-20T13:22:25;4.65;;;0.90;;
8708;SDS011;4391;48.678;9.280;2023-07-20T13:24:52;3.17;;;1.00;;
8708;SDS011;4391;48.678;9.280;2023-07-20T13:27:19;3.17;;;1.10;;
8708;SDS011;4391;48.678;9.280;2023-07-20T13:29:47;3.70;;;1.13;;
8708;SDS011;4391;48.678;9.280;2023-07-20T13:32:14;2.53;;;0.88;;
8708;SDS011;4391;48.678;9.280;2023-07-20T13:34:43;2.70;;;0.80;;
8708;SDS011;4391;48.678;9.280;2023-07-20T13:37:10;4.40;;;1.10;;
8708;SDS011;4391;48.678;9.280;2023-07-20T13:39:39;4.27;;;0.77;;
8708;SDS011;4391;48.678;9.280;2023-07-20T13:42:06;2.70;;;1.00;;
8708;SDS011;4391;48.678;9.280;2023-07-20T13:44:34;2.13;;;0.82;;
8708;SDS011;4391;48.678;9.280;2023-07-20T13:47:01;3.45;;;0.90;;
8708;SDS011;4391;48.678;9.280;2023-07-20T13:49:28;3.50;;;0.90;;
8708;SDS011;4391;48.678;9.280;2023-07-20T13:51:55;4.68;;;1.20;;
8708;SDS011;4391;48.678;9.280;2023-07-20T13:54:22;2.77;;;0.70;;
8708;SDS011;4391;48.678;9.280;2023-07-20T13:56:51;3.17;;;0.80;;
8708;SDS011;4391;48.678;9.280;2023-07-20T13:59:17;3.08;;;0.80;;
8708;SDS011;4391;48.678;9.280;2023-07-20T14:01:44;4.53;;;0.80;;
8708;SDS011;4391;48.678;9.280;2023-07-20T14:04:11;4.65;;;1.00;;
8708;SDS011;4391;48.678;9.280;2023-07-20T14:06:38;2.97;;;0.90;;
8708;SDS011;4391;48.678;9.280;2023-07-20T14:09:05;2.07;;;0.73;;
8708;SDS011;4391;48.678;9.280;2023-07-20T14:11:32;2.75;;;0.80;;
8708;SDS011;4391;48.678;9.280;2023-07-20T14:14:00;3.58;;;0.95;;
8708;SDS011;4391;48.678;9.280;2023-07-20T14:16:27;2.78;;;0.98;;
8708;SDS011;4391;48.678;9.280;2023-07-20T14:18:54;2.83;;;0.90;;
8708;SDS011;4391;48.678;9.280;2023-07-20T14:21:21;2.73;;;1.00;;
8708;SDS011;4391;48.678;9.280;2023-07-20T14:23:48;2.65;;;0.90;;
8708;SDS011;4391;48.678;9.280;2023-07-20T14:26:17;4.95;;;1.10;;
8708;SDS011;4391;48.678;9.280;2023-07-20T14:28:43;4.63;;;1.08;;
8708;SDS011;4391;48.678;9.280;2023-07-20T14:31:12;3.30;;;0.90;;
8708;SDS011;4391;48.678;9.280;2023-07-20T14:33:39;3.10;;;1.00;;
8708;SDS011;4391;48.678;9.280;2023-07-20T14:36:05;4.77;;;0.90;;
8708;SDS011;4391;48.678;9.280;2023-07-20T14:38:33;2.40;;;0.80;;
8708;SDS011;4391;48.678;9.280;2023-07-20T14:41:00;1.98;;;0.70;;
8708;SDS011;4391;48.678;9.280;2023-07-20T14:43:27;3.20;;;0.90;;
8708;SDS011;4391;48.678;9.280;2023-07-20T14:45:54;5.30;;;0.90;;
8708;SDS011;4391;48.678;9.280;2023-07-20T14:48:23;5.13;;;0.80;;
8708;SDS011;4391;48.678;9.280;2023-07-20T14:50:49;2.75;;;0.90;;
8708;SDS011;4391;48.678;9.280;2023-07-20T14:53:16;6.32;;;0.90;;
8708;SDS011;4391;48.678;9.280;2023-07-20T14:55:43;3.70;;;0.77;;
8708;SDS011;4391;48.678;9.280;2023-07-20T14:58:10;3.35;;;0.70;;
8708;SDS011;4391;48.678;9.280;2023-07-20T15:00:37;2.80;;;0.90;;
8708;SDS011;4391;48.678;9.280;2023-07-20T15:03:04;3.93;;;0.80;;
8708;SDS011;4391;48.678;9.280;2023-07-20T15:05:32;5.15;;;0.90;;
8708;SDS011;4391;48.678;9.280;2023-07-20T15:08:00;5.13;;;1.00;;
8708;SDS011;4391;48.678;9.280;2023-07-20T15:10:27;5.85;;;1.00;;
8708;SDS011;4391;48.678;9.280;2023-07-20T15:12:55;4.72;;;1.17;;
8708;SDS011;4391;48.678;9.280;2023-07-20T15:15:21;4.13;;;1.03;;
8708;SDS011;4391;48.678;9.280;2023-07-20T15:17:48;3.97;;;0.93;;
8708;SDS011;4391;48.678;9.280;2023-07-20T15:20:16;4.10;;;1.10;;
8708;SDS011;4391;48.678;9.280;2023-07-20T15:22:44;5.28;;;1.13;;
8708;SDS011;4391;48.678;9.280;2023-07-20T15:25:11;3.50;;;1.20;;
8708;SDS011;4391;48.678;9.280;2023-07-20T15:30:15;3.90;;;1.03;;
8708;SDS011;4391;48.678;9.280;2023-07-20T15:32:42;2.53;;;1.00;;